Time;durP1;ratioP1;P1;durP2;ratioP2;P2;SDS_P1;SDS_P2;PMS_P1;PMS_P2;Temp;Humidity;BMP_temperature;BMP_pressure;BME280_temperature;BME280_humidity;BME280_pressure;Samples;Min_cycle;Max_cycle;Signal;HPM_P1;HPM_P2
2022/07/24 00:00:05;;;;;;;15.23;11.57;;;12.40;96.30;;;;;;4973742;28;20209;-79
2022/07/24 04:02:31;;;;;;;10.90;9.80;;;13.10;96.30;;;;;;5094578;23;20881;-78
2022/07/24 04:04:57;;;;;;;11.87;10.67;;;13.60;96.30;;;;;;4978716;28;20425;-77
2022/07/24 04:07:22;;;;;;;11.10;10.00;;;14.10;96.30;;;;;;4995974;28;20664;-77
2022/07/24 04:09:48;;;;;;;10.93;9.73;;;14.50;96.30;;;;;;4995360;28;20169;-77
2022/07/24 04:12:13;;;;;;;12.13;9.70;;;15.00;96.30;;;;;;4995974;28;20193;-77
2022/07/24 04:14:39;;;;;;;9.03;8.23;;;15.30;96.30;;;;;;4997289;28;20174;-81
2022/07/24 04:17:05;;;;;;;11.57;9.33;;;16.00;96.30;;;;;;5007567;28;20220;-79
2022/07/24 04:19:31;;;;;;;9.13;8.23;;;16.40;96.30;;;;;;4982319;28;20174;-80
2022/07/24 04:21:56;;;;;;;8.87;8.03;;;16.40;96.30;;;;;;4979548;28;20967;-80
2022/07/24 04:24:22;;;;;;;9.00;8.20;;;16.70;96.30;;;;;;4978356;28;20601;-80
2022/07/24 04:26:47;;;;;;;10.17;7.97;;;17.20;96.30;;;;;;4979528;28;20182;-80
2022/07/24 04:29:13;;;;;;;8.87;7.73;;;17.90;96.30;;;;;;4977775;28;20185;-80
2022/07/24 04:31:38;;;;;;;9.70;8.80;;;18.10;96.30;;;;;;4979941;28;20201;-80
2022/07/24 04:34:04;;;;;;;10.33;8.80;;;18.30;96.30;;;;;;4978908;28;20586;-80
2022/07/24 04:36:29;;;;;;;10.60;7.70;;;18.70;96.30;;;;;;4995694;28;20208;-80
2022/07/24 04:38:55;;;;;;;8.87;7.37;;;18.90;96.30;;;;;;4999108;28;20176;-80
2022/07/24 04:41:20;;;;;;;9.30;8.13;;;19.10;96.30;;;;;;4984607;28;20284;-80
2022/07/24 04:43:46;;;;;;;7.67;6.97;;;19.30;96.30;;;;;;4981021;28;20234;-80
2022/07/24 04:46:11;;;;;;;10.70;7.83;;;19.60;96.30;;;;;;4980322;28;20232;-80
2022/07/24 04:48:37;;;;;;;8.43;7.63;;;19.80;96.30;;;;;;4979431;28;20213;-80
2022/07/24 04:51:02;;;;;;;9.30;7.37;;;19.80;96.30;;;;;;4980117;28;20194;-80
2022/07/24 04:53:30;;;;;;;7.70;6.90;;;20.30;96.30;;;;;;4980357;28;20182;-80
2022/07/24 04:55:56;;;;;;;8.00;7.17;;;20.70;96.30;;;;;;4980978;28;20170;-80
2022/07/24 04:58:22;;;;;;;10.20;7.43;;;21.00;96.30;;;;;;4979868;28;20458;-80
2022/07/24 05:00:47;;;;;;;7.93;7.20;;;21.00;96.30;;;;;;4980205;28;20564;-79
2022/07/24 05:03:13;;;;;;;7.23;6.53;;;21.30;96.30;;;;;;4979707;28;20174;-81
2022/07/24 05:05:38;;;;;;;8.27;7.17;;;21.50;96.30;;;;;;4979393;28;20182;-81
2022/07/24 05:08:04;;;;;;;8.33;7.50;;;22.30;96.30;;;;;;4976655;28;20230;-80
2022/07/24 05:10:29;;;;;;;7.60;6.90;;;23.00;93.90;;;;;;4992743;28;20547;-80
2022/07/24 05:12:55;;;;;;;7.90;7.20;;;22.20;95.10;;;;;;4996221;28;20328;-80
2022/07/24 05:15:21;;;;;;;7.40;6.70;;;22.50;94.50;;;;;;4998245;28;20169;-81
2022/07/24 05:17:47;;;;;;;7.37;6.70;;;22.40;94.40;;;;;;4996919;28;20182;-80
2022/07/24 05:20:13;;;;;;;7.40;6.70;;;22.70;94.20;;;;;;4998650;28;20170;-80
2022/07/24 05:22:38;;;;;;;8.83;7.27;;;22.90;93.10;;;;;;4998245;28;20817;-79
2022/07/24 05:25:04;;;;;;;7.40;6.80;;;22.20;94.50;;;;;;4998479;28;20236;-80
2022/07/24 05:27:30;;;;;;;8.40;6.77;;;21.60;96.30;;;;;;4998091;28;20202;-81
2022/07/24 05:29:55;;;;;;;8.90;7.00;;;22.00;96.30;;;;;;4998717;28;20470;-80
2022/07/24 05:32:21;;;;;;;7.03;6.43;;;21.80;96.30;;;;;;4998739;28;20684;-81
2022/07/24 05:34:46;;;;;;;7.97;7.17;;;22.60;95.30;;;;;;4998001;28;20217;-80
2022/07/24 05:37:12;;;;;;;7.80;7.10;;;22.50;95.30;;;;;;4996992;28;20177;-80
2022/07/24 05:39:37;;;;;;;6.70;5.87;;;22.10;96.30;;;;;;4995852;28;20182;-81
2022/07/24 05:42:03;;;;;;;7.43;6.67;;;22.40;96.00;;;;;;4977742;28;20284;-79
2022/07/24 05:44:29;;;;;;;7.17;6.57;;;22.50;95.30;;;;;;4977886;28;20631;-80
2022/07/24 05:46:54;;;;;;;6.80;6.13;;;22.80;94.70;;;;;;4978085;28;20413;-81
2022/07/24 05:49:20;;;;;;;8.97;6.50;;;23.40;92.50;;;;;;4976521;28;20174;-81
2022/07/24 05:51:45;;;;;;;8.87;6.30;;;23.80;91.00;;;;;;4977986;28;20189;-80
2022/07/24 05:54:11;;;;;;;6.70;6.20;;;23.80;91.80;;;;;;4976330;28;20253;-81
2022/07/24 05:56:36;;;;;;;7.33;6.63;;;24.50;89.40;;;;;;4977880;28;20228;-80
2022/07/24 05:59:02;;;;;;;6.77;5.90;;;25.00;87.90;;;;;;4977151;28;20217;-81
2022/07/24 06:01:27;;;;;;;7.10;6.40;;;24.90;88.30;;;;;;4974287;28;20216;-79
2022/07/24 06:03:53;;;;;;;7.10;5.90;;;25.50;85.40;;;;;;4973134;28;20189;-76
2022/07/24 06:06:18;;;;;;;7.90;6.40;;;25.80;85.30;;;;;;4974378;28;20174;-77
2022/07/24 06:08:45;;;;;;;6.10;5.60;;;25.70;85.90;;;;;;4973739;28;20214;-81
2022/07/24 06:11:10;;;;;;;10.43;6.13;;;25.60;86.30;;;;;;4954990;28;20214;-77
2022/07/24 06:13:36;;;;;;;6.90;6.20;;;25.40;85.90;;;;;;4954888;29;21010;-79
2022/07/24 06:16:01;;;;;;;9.13;5.90;;;25.50;85.90;;;;;;4953652;29;20190;-77
2022/07/24 06:18:27;;;;;;;6.57;6.07;;;26.20;83.90;;;;;;4954351;29;20182;-77
2022/07/24 06:20:52;;;;;;;6.30;5.70;;;26.60;83.20;;;;;;4953492;29;20666;-77
2022/07/24 06:23:18;;;;;;;6.50;5.90;;;26.90;83.50;;;;;;4960723;28;20264;-76
2022/07/24 06:25:43;;;;;;;5.67;5.17;;;27.30;83.50;;;;;;4960923;28;20232;-77
2022/07/24 06:28:09;;;;;;;5.80;5.30;;;27.10;84.30;;;;;;4954311;28;20285;-77
2022/07/24 06:30:34;;;;;;;5.80;5.27;;;28.40;79.60;;;;;;4956375;29;20573;-78
2022/07/24 06:33:00;;;;;;;7.27;5.47;;;28.00;79.80;;;;;;4954572;29;20189;-78
2022/07/24 06:35:27;;;;;;;5.10;4.70;;;28.00;80.70;;;;;;4954857;29;20257;-78
2022/07/24 06:37:55;;;;;;;5.20;4.70;;;28.50;78.90;;;;;;4952786;29;20638;-78
2022/07/24 06:40:20;;;;;;;5.13;4.73;;;28.20;80.40;;;;;;4967194;28;20424;-79
2022/07/24 06:42:48;;;;;;;5.17;4.67;;;28.10;79.80;;;;;;4993387;28;20442;-78
2022/07/24 06:45:14;;;;;;;5.30;4.80;;;29.20;77.10;;;;;;4992271;28;20597;-78
2022/07/24 06:47:40;;;;;;;5.10;4.70;;;30.10;74.90;;;;;;4992727;28;20456;-79
2022/07/24 06:50:06;;;;;;;5.10;4.60;;;29.40;75.90;;;;;;4992251;28;20555;-78
2022/07/24 06:52:32;;;;;;;9.83;4.40;;;27.60;79.60;;;;;;4993321;28;20515;-79
2022/07/24 06:54:57;;;;;;;5.90;4.30;;;27.80;80.50;;;;;;4993342;28;20213;-78
2022/07/24 06:57:25;;;;;;;5.83;4.07;;;29.50;76.10;;;;;;4991970;28;20187;-78
2022/07/24 06:59:53;;;;;;;4.73;3.70;;;29.20;75.70;;;;;;4991918;28;20177;-78
2022/07/24 07:02:21;;;;;;;4.50;4.10;;;29.90;73.10;;;;;;4993090;28;20546;-79
2022/07/24 07:04:47;;;;;;;4.60;2.60;;;28.00;76.70;;;;;;4992970;28;20411;-78
2022/07/24 07:07:12;;;;;;;3.60;2.90;;;28.30;73.90;;;;;;4993069;28;20458;-79
2022/07/24 07:09:38;;;;;;;2.63;2.23;;;29.20;72.70;;;;;;4985259;28;20417;-78
2022/07/24 07:12:04;;;;;;;4.60;2.03;;;30.00;69.90;;;;;;4972130;28;20197;-78
2022/07/24 07:14:30;;;;;;;4.73;2.63;;;28.10;72.40;;;;;;4973444;28;20181;-78
2022/07/24 07:16:55;;;;;;;5.10;2.73;;;29.50;70.90;;;;;;4971981;28;20414;-79
2022/07/24 07:19:21;;;;;;;2.90;2.40;;;30.40;71.70;;;;;;4975615;28;20261;-79
2022/07/24 07:21:46;;;;;;;2.67;2.40;;;30.60;68.00;;;;;;4976955;28;20203;-79
2022/07/24 07:24:11;;;;;;;2.63;2.43;;;30.60;68.00;;;;;;4976136;28;20256;-79
2022/07/24 07:26:37;;;;;;;2.87;2.67;;;30.00;69.00;;;;;;4972082;28;20622;-78
2022/07/24 07:29:03;;;;;;;4.13;2.50;;;30.70;69.40;;;;;;4972757;28;20206;-78
2022/07/24 07:31:28;;;;;;;7.00;2.97;;;29.20;70.30;;;;;;4973279;28;20576;-78
2022/07/24 07:33:54;;;;;;;3.00;2.30;;;29.90;68.70;;;;;;4973324;28;20637;-78
2022/07/24 07:36:19;;;;;;;4.20;2.33;;;30.80;68.90;;;;;;4973221;28;20317;-79
2022/07/24 07:38:45;;;;;;;5.20;2.37;;;30.70;67.70;;;;;;4976543;28;20169;-78
2022/07/24 07:41:11;;;;;;;5.63;2.23;;;30.90;67.40;;;;;;4990636;28;20204;-78
2022/07/24 07:43:38;;;;;;;2.73;2.30;;;30.40;68.60;;;;;;4968722;28;20269;-81
2022/07/24 07:46:04;;;;;;;4.23;2.50;;;30.90;68.30;;;;;;4958822;28;20433;-80
2022/07/24 07:48:30;;;;;;;8.30;2.28;;;31.30;66.60;;;;;;4960264;28;20213;-80
2022/07/24 07:50:56;;;;;;;5.72;2.90;;;30.90;67.70;;;;;;4959593;28;20198;-81
2022/07/24 07:53:21;;;;;;;3.47;2.33;;;32.10;66.20;;;;;;4960045;28;20595;-80
2022/07/24 07:55:51;;;;;;;2.75;2.28;;;31.30;65.90;;;;;;4959714;28;20261;-80
2022/07/24 07:58:17;;;;;;;2.90;2.30;;;31.10;66.00;;;;;;4957943;28;20182;-81
2022/07/24 08:00:43;;;;;;;6.35;2.47;;;30.70;66.70;;;;;;4957793;28;20276;-81
2022/07/24 08:03:08;;;;;;;5.68;2.42;;;31.10;66.70;;;;;;4958820;28;20190;-80
2022/07/24 08:05:34;;;;;;;4.75;2.55;;;31.70;67.20;;;;;;4958243;28;20264;-80
2022/07/24 08:08:00;;;;;;;4.70;2.90;;;32.90;66.40;;;;;;4957512;28;20256;-80
2022/07/24 08:10:25;;;;;;;5.03;3.15;;;33.10;64.20;;;;;;4984694;28;20184;-81
2022/07/24 08:12:51;;;;;;;6.68;3.13;;;32.80;62.80;;;;;;4995581;28;20588;-81
2022/07/24 08:15:17;;;;;;;5.95;2.80;;;30.90;64.50;;;;;;4995880;28;20180;-81
2022/07/24 08:17:43;;;;;;;3.60;2.60;;;30.90;68.30;;;;;;4996829;28;20197;-81
2022/07/24 08:20:09;;;;;;;3.63;2.57;;;32.20;64.30;;;;;;4997060;28;20181;-80
2022/07/24 08:22:34;;;;;;;3.93;2.10;;;32.70;65.40;;;;;;4995661;28;20707;-80
2022/07/24 08:25:00;;;;;;;5.03;2.33;;;32.50;65.00;;;;;;4982184;28;20174;-81
2022/07/24 08:27:25;;;;;;;4.63;2.20;;;33.10;64.10;;;;;;4956446;29;20648;-79
2022/07/24 08:29:50;;;;;;;6.28;2.53;;;32.70;62.10;;;;;;4958120;28;20690;-81
2022/07/24 08:32:16;;;;;;;2.67;2.47;;;32.60;66.80;;;;;;4956795;28;20198;-81
2022/07/24 08:34:41;;;;;;;3.20;2.38;;;32.90;64.30;;;;;;4956588;28;20581;-81
2022/07/24 08:37:07;;;;;;;3.00;2.25;;;33.40;64.10;;;;;;4957901;29;20185;-80
2022/07/24 08:39:32;;;;;;;8.02;2.70;;;33.10;62.10;;;;;;4958924;28;20227;-81
2022/07/24 08:41:58;;;;;;;3.43;2.43;;;33.60;62.50;;;;;;4996939;28;20196;-81
2022/07/24 08:44:23;;;;;;;5.20;3.00;;;32.80;61.20;;;;;;4998009;28;20181;-80
2022/07/24 08:46:52;;;;;;;4.37;2.10;;;32.10;65.20;;;;;;4999028;28;20193;-80
2022/07/24 08:49:21;;;;;;;3.60;2.37;;;32.40;64.40;;;;;;4963300;28;20190;-80
2022/07/24 08:51:49;;;;;;;3.10;2.13;;;31.60;67.80;;;;;;4981109;28;20914;-80
2022/07/24 08:54:14;;;;;;;4.30;2.70;;;31.80;66.50;;;;;;4982132;28;20413;-79
2022/07/24 08:56:41;;;;;;;3.80;2.40;;;32.60;63.80;;;;;;4980604;28;20417;-78
2022/07/24 08:59:19;;;;;;;2.53;2.33;;;32.80;63.50;;;;;;4969753;28;20174;-79
2022/07/24 09:01:47;;;;;;;3.30;2.90;;;32.90;66.50;;;;;;4969409;28;20465;-79
2022/07/24 09:04:36;;;;;;;4.07;2.67;;;33.00;64.50;;;;;;4964396;28;20929;-79
2022/07/24 09:07:05;;;;;;;5.03;2.97;;;32.90;64.30;;;;;;4961888;28;20430;-78
2022/07/24 09:09:31;;;;;;;4.53;2.20;;;32.10;61.60;;;;;;4967318;28;20413;-78
2022/07/24 09:12:13;;;;;;;2.90;2.47;;;32.60;64.80;;;;;;4967828;28;20435;-77
2022/07/24 09:14:41;;;;;;;4.27;2.67;;;31.60;66.10;;;;;;4963428;28;20504;-78
2022/07/24 09:17:12;;;;;;;3.10;2.50;;;32.10;67.80;;;;;;4964253;28;20420;-79
2022/07/24 09:19:50;;;;;;;3.33;2.67;;;32.90;64.10;;;;;;4962867;28;20765;-79
2022/07/24 09:22:25;;;;;;;3.80;2.70;;;32.70;63.50;;;;;;4973778;28;20447;-78
2022/07/24 09:25:12;;;;;;;2.90;2.60;;;32.80;62.00;;;;;;4973876;28;20859;-79
2022/07/24 09:27:41;;;;;;;2.70;2.50;;;32.60;65.50;;;;;;4975084;28;20448;-78
2022/07/24 09:30:08;;;;;;;7.03;2.57;;;32.60;64.40;;;;;;4964249;28;20418;-79
2022/07/24 09:32:35;;;;;;;4.57;2.90;;;31.50;63.70;;;;;;4972212;28;20541;-79
2022/07/24 09:35:03;;;;;;;6.73;2.30;;;30.10;66.30;;;;;;4961635;28;20430;-79
2022/07/24 09:37:30;;;;;;;2.33;2.00;;;30.70;67.80;;;;;;4955874;28;21158;-79
2022/07/24 09:40:07;;;;;;;4.83;2.60;;;32.40;67.30;;;;;;4973256;28;20424;-79
2022/07/24 09:42:38;;;;;;;3.70;2.70;;;32.50;61.90;;;;;;4971019;28;20487;-79
2022/07/24 09:45:05;;;;;;;3.93;2.90;;;31.20;65.40;;;;;;4967103;28;20493;-80
2022/07/24 09:47:34;;;;;;;3.80;2.73;;;31.50;64.00;;;;;;4968759;28;20452;-79
2022/07/24 09:50:12;;;;;;;3.20;2.60;;;30.80;66.10;;;;;;4964804;28;20421;-79
2022/07/24 09:52:40;;;;;;;2.70;2.40;;;29.70;67.00;;;;;;4968717;28;20436;-79
2022/07/24 09:55:19;;;;;;;3.40;2.33;;;30.00;70.60;;;;;;4969464;28;20904;-79
2022/07/24 09:57:45;;;;;;;6.40;2.83;;;30.70;66.60;;;;;;4957831;28;20436;-78
2022/07/24 10:00:11;;;;;;;2.80;2.50;;;30.60;65.90;;;;;;4953252;28;20414;-79
2022/07/24 10:02:36;;;;;;;5.40;2.70;;;29.50;68.10;;;;;;4922042;29;988770;-79
2022/07/24 10:05:03;;;;;;;3.80;3.00;;;29.50;70.60;;;;;;4954757;28;20185;-79
2022/07/24 10:07:30;;;;;;;3.87;2.73;;;30.10;69.60;;;;;;4954828;29;20233;-79
2022/07/24 10:09:57;;;;;;;7.27;2.73;;;30.50;67.20;;;;;;4975224;28;20490;-79
2022/07/24 10:12:26;;;;;;;3.77;2.83;;;30.20;67.50;;;;;;4994425;28;20916;-79
2022/07/24 10:14:53;;;;;;;4.73;2.93;;;30.40;68.50;;;;;;4994560;28;20413;-79
2022/07/24 10:17:22;;;;;;;5.40;2.43;;;30.60;67.50;;;;;;4994085;28;20903;-79
2022/07/24 10:19:51;;;;;;;9.20;3.20;;;30.00;67.10;;;;;;4993575;28;20440;-79
2022/07/24 10:22:20;;;;;;;3.93;2.67;;;29.60;66.80;;;;;;4993864;28;20440;-79
2022/07/24 10:25:05;;;;;;;5.20;2.53;;;30.00;67.50;;;;;;4994064;28;20876;-79
2022/07/24 10:27:35;;;;;;;3.97;2.43;;;29.80;66.80;;;;;;4993190;28;20444;-80
2022/07/24 10:30:05;;;;;;;3.27;2.10;;;29.30;66.90;;;;;;4993656;28;20423;-79
2022/07/24 10:32:32;;;;;;;5.03;2.80;;;29.20;67.80;;;;;;4986479;28;20991;-79
2022/07/24 10:35:16;;;;;;;12.80;2.43;;;30.40;68.60;;;;;;4975689;28;20445;-79
2022/07/24 10:38:16;;;;;;;3.57;2.47;;;31.30;65.30;;;;;;4974337;28;20983;-78
2022/07/24 10:40:49;;;;;;;3.90;3.23;;;32.00;64.60;;;;;;4965756;28;20430;-76
2022/07/24 10:43:16;;;;;;;5.80;2.47;;;30.50;61.90;;;;;;4954688;29;20422;-77
2022/07/24 10:45:55;;;;;;;2.33;2.13;;;31.30;66.60;;;;;;4962092;28;20448;-77
2022/07/24 10:48:25;;;;;;;6.83;2.30;;;31.90;61.00;;;;;;4962556;28;20484;-77
2022/07/24 10:51:17;;;;;;;4.73;2.60;;;32.10;63.20;;;;;;4956779;28;20434;-77
2022/07/24 10:53:46;;;;;;;2.53;2.30;;;32.00;65.30;;;;;;4960026;28;20777;-77
2022/07/24 10:56:19;;;;;;;3.10;2.10;;;31.80;65.00;;;;;;4973183;28;20421;-78
2022/07/24 10:58:55;;;;;;;2.20;2.00;;;32.00;62.80;;;;;;4972901;28;20413;-76
2022/07/24 11:01:32;;;;;;;2.43;2.17;;;31.80;62.50;;;;;;4971515;28;20944;-77
2022/07/24 11:03:59;;;;;;;3.33;2.60;;;31.60;63.40;;;;;;4969803;28;20437;-77
2022/07/24 11:06:44;;;;;;;4.33;2.40;;;31.70;62.30;;;;;;4980704;28;20960;-77
2022/07/24 11:09:11;;;;;;;2.80;2.20;;;32.10;61.70;;;;;;4980557;28;20828;-77
2022/07/24 11:12:00;;;;;;;5.33;2.00;;;32.30;58.40;;;;;;4972753;28;21172;-77
2022/07/24 11:14:47;;;;;;;4.53;2.03;;;32.20;62.40;;;;;;4958403;28;20507;-78
2022/07/24 11:17:37;;;;;;;2.53;2.13;;;31.70;62.40;;;;;;4962345;28;20411;-78
2022/07/24 11:20:05;;;;;;;2.73;2.43;;;30.70;63.20;;;;;;4963879;28;20412;-78
2022/07/24 11:22:38;;;;;;;3.90;2.60;;;30.70;64.90;;;;;;4963866;28;20500;-77
2022/07/24 11:25:21;;;;;;;3.50;2.97;;;30.70;64.30;;;;;;4962378;28;20424;-77
2022/07/24 11:27:57;;;;;;;7.83;2.37;;;30.90;64.80;;;;;;4960416;28;20518;-78
2022/07/24 11:30:30;;;;;;;5.20;2.37;;;31.30;65.50;;;;;;4962017;28;20414;-77
2022/07/24 11:32:57;;;;;;;11.50;2.43;;;31.50;61.70;;;;;;4964363;28;20465;-78
2022/07/24 11:35:34;;;;;;;2.20;2.00;;;32.20;62.10;;;;;;4965042;28;20397;-77
2022/07/24 11:38:02;;;;;;;7.50;2.50;;;32.40;62.50;;;;;;4961099;28;20442;-80
2022/07/24 11:40:28;;;;;;;5.20;2.53;;;32.30;60.10;;;;;;4967817;28;20517;-78
2022/07/24 11:43:03;;;;;;;2.43;2.23;;;31.40;60.60;;;;;;4964449;28;20414;-77
2022/07/24 11:45:29;;;;;;;2.73;2.53;;;31.70;64.60;;;;;;4961460;28;20204;-77
2022/07/24 11:47:55;;;;;;;3.80;2.40;;;32.00;61.70;;;;;;4956904;28;20922;-77
2022/07/24 11:50:23;;;;;;;4.43;2.10;;;32.00;59.10;;;;;;4971788;28;20174;-77
2022/07/24 11:52:49;;;;;;;4.53;2.50;;;31.60;62.20;;;;;;4992364;28;20443;-79
2022/07/24 11:55:18;;;;;;;3.03;2.00;;;31.40;61.10;;;;;;4984395;28;20484;-79
2022/07/24 11:57:52;;;;;;;2.80;2.23;;;31.00;62.20;;;;;;4967846;28;20840;-79
2022/07/24 12:00:22;;;;;;;3.93;2.30;;;30.80;64.70;;;;;;4961545;28;20417;-79
2022/07/24 12:02:52;;;;;;;2.47;2.00;;;31.10;67.40;;;;;;4956277;28;20496;-79
2022/07/24 12:05:27;;;;;;;3.40;2.53;;;31.70;64.30;;;;;;4965828;28;20429;-79
2022/07/24 12:07:52;;;;;;;4.43;2.20;;;31.30;63.00;;;;;;4968705;28;20464;-79
2022/07/24 12:10:20;;;;;;;7.43;2.03;;;30.50;61.50;;;;;;4973164;28;20413;-78
2022/07/24 12:12:48;;;;;;;4.90;2.40;;;30.10;62.30;;;;;;4968428;28;20273;-78
2022/07/24 12:15:14;;;;;;;3.43;2.13;;;30.90;64.60;;;;;;4953708;28;20430;-79
2022/07/24 12:17:59;;;;;;;3.20;1.87;;;30.70;62.40;;;;;;4965810;28;20425;-80
2022/07/24 12:20:29;;;;;;;3.97;1.93;;;31.10;62.40;;;;;;4964775;28;20457;-79
2022/07/24 12:22:55;;;;;;;5.43;2.00;;;31.20;63.80;;;;;;4967189;28;20453;-80
2022/07/24 12:25:23;;;;;;;3.20;2.40;;;31.70;62.10;;;;;;4976210;28;20444;-80
2022/07/24 12:27:49;;;;;;;2.40;2.20;;;31.60;62.10;;;;;;4987280;28;20802;-78
2022/07/24 12:30:22;;;;;;;3.13;2.20;;;31.50;61.90;;;;;;4984931;28;20945;-80
2022/07/24 12:33:05;;;;;;;6.20;2.50;;;30.90;64.10;;;;;;4987560;28;20221;-79
2022/07/24 12:35:33;;;;;;;3.53;2.30;;;31.20;62.20;;;;;;4977223;28;20413;-78
2022/07/24 12:38:02;;;;;;;2.87;2.40;;;31.40;62.60;;;;;;4984210;28;20429;-80
2022/07/24 12:40:35;;;;;;;3.67;2.37;;;31.40;62.50;;;;;;4993327;28;20430;-78
2022/07/24 12:43:10;;;;;;;2.90;2.63;;;31.90;63.20;;;;;;4985898;28;20425;-80
2022/07/24 12:45:36;;;;;;;3.40;2.40;;;31.50;60.00;;;;;;4977317;28;20429;-80
2022/07/24 12:48:21;;;;;;;3.83;2.07;;;31.50;61.90;;;;;;4981310;28;20522;-79
2022/07/24 12:51:01;;;;;;;2.93;2.10;;;31.70;62.10;;;;;;4973085;28;20930;-80
2022/07/24 12:53:28;;;;;;;3.40;1.90;;;32.10;60.20;;;;;;4989465;28;20420;-80
2022/07/24 12:56:23;;;;;;;3.37;2.10;;;32.30;60.60;;;;;;4990409;28;20416;-80
2022/07/24 12:58:49;;;;;;;3.20;2.27;;;32.50;59.70;;;;;;4970878;28;20452;-79
2022/07/24 13:01:14;;;;;;;6.70;2.60;;;32.50;58.30;;;;;;4977459;28;20539;-80
2022/07/24 13:03:40;;;;;;;4.80;2.10;;;32.00;60.20;;;;;;4988697;28;20218;-80
2022/07/24 13:06:06;;;;;;;2.43;2.23;;;32.00;60.60;;;;;;4980456;28;20197;-79
2022/07/24 13:08:31;;;;;;;2.90;2.20;;;32.30;61.40;;;;;;4983712;28;20209;-80
2022/07/24 13:10:57;;;;;;;3.20;2.27;;;31.60;57.40;;;;;;5000003;28;20207;-79
2022/07/24 13:13:22;;;;;;;3.10;2.10;;;31.80;60.10;;;;;;4988676;28;20189;-79
2022/07/24 13:15:48;;;;;;;2.03;1.90;;;32.20;58.50;;;;;;4979698;28;20572;-80
2022/07/24 13:18:13;;;;;;;4.33;2.13;;;32.30;59.40;;;;;;4979022;28;20181;-79
2022/07/24 13:20:39;;;;;;;2.10;2.00;;;32.40;58.80;;;;;;4979590;28;20514;-79
2022/07/24 13:23:04;;;;;;;3.90;1.73;;;32.40;56.80;;;;;;4963649;28;20210;-80
2022/07/24 13:25:30;;;;;;;2.20;2.10;;;30.30;59.80;;;;;;4981865;28;20178;-80
2022/07/24 13:27:55;;;;;;;3.87;2.37;;;30.70;61.40;;;;;;4977277;28;20249;-80
2022/07/24 13:30:21;;;;;;;2.23;2.03;;;31.10;60.70;;;;;;4979729;28;20597;-81
2022/07/24 13:32:46;;;;;;;2.10;1.90;;;31.60;60.00;;;;;;4980330;28;20276;-79
2022/07/24 13:35:12;;;;;;;3.10;2.60;;;31.90;60.30;;;;;;4978114;28;20629;-80
2022/07/24 13:37:37;;;;;;;3.50;2.20;;;32.10;58.10;;;;;;4979461;28;20177;-80
2022/07/24 13:40:05;;;;;;;2.13;1.93;;;32.00;59.80;;;;;;4971042;28;20189;-81
2022/07/24 13:42:31;;;;;;;3.97;2.10;;;32.20;57.70;;;;;;4999588;28;20244;-81
2022/07/24 13:44:57;;;;;;;2.97;2.40;;;31.70;56.60;;;;;;5000707;28;20939;-80
2022/07/24 13:47:22;;;;;;;2.33;1.90;;;31.50;56.60;;;;;;4999472;28;20415;-81
2022/07/24 13:49:48;;;;;;;3.73;2.33;;;31.50;57.00;;;;;;4987959;28;20646;-81
2022/07/24 13:52:15;;;;;;;2.23;2.00;;;31.20;58.20;;;;;;4978270;28;20240;-80
2022/07/24 13:54:41;;;;;;;2.03;1.90;;;31.40;59.80;;;;;;4977752;28;20197;-80
2022/07/24 13:57:06;;;;;;;4.90;2.67;;;31.50;57.20;;;;;;4977294;28;20417;-80
2022/07/24 13:59:33;;;;;;;2.70;1.80;;;31.30;57.40;;;;;;4975684;28;20263;-80
2022/07/24 14:01:58;;;;;;;3.97;2.20;;;31.20;58.90;;;;;;4980932;28;20631;-80
2022/07/24 14:04:24;;;;;;;2.03;1.83;;;31.00;57.50;;;;;;4980960;28;20442;-80
2022/07/24 14:06:50;;;;;;;5.37;2.10;;;31.30;57.50;;;;;;4981051;28;20522;-80
2022/07/24 14:09:15;;;;;;;5.07;1.90;;;31.90;58.60;;;;;;4981190;28;20229;-80
2022/07/24 14:11:41;;;;;;;3.73;1.87;;;31.90;57.70;;;;;;4979394;28;20224;-81
2022/07/24 14:14:06;;;;;;;6.80;2.33;;;31.00;57.30;;;;;;4961373;28;20170;-81
2022/07/24 14:16:32;;;;;;;2.67;2.10;;;31.00;60.10;;;;;;4958159;28;20594;-81
2022/07/24 14:18:58;;;;;;;5.83;1.90;;;31.20;59.20;;;;;;4958691;28;20269;-81
2022/07/24 14:21:23;;;;;;;2.33;2.13;;;30.80;60.90;;;;;;4959414;28;20201;-81
2022/07/24 14:23:49;;;;;;;4.57;2.03;;;30.70;58.80;;;;;;4958444;29;20422;-81
2022/07/24 14:26:15;;;;;;;2.07;1.97;;;30.50;61.30;;;;;;4957690;29;20630;-81
2022/07/24 14:28:40;;;;;;;2.07;1.80;;;31.00;61.60;;;;;;4959254;28;20234;-81
2022/07/24 14:31:07;;;;;;;2.43;2.23;;;31.30;62.00;;;;;;4960320;28;20201;-81
2022/07/24 14:33:33;;;;;;;5.33;2.57;;;31.70;60.20;;;;;;4972773;28;20175;-81
2022/07/24 14:35:59;;;;;;;4.10;2.17;;;31.60;59.10;;;;;;4957502;28;20402;-80
2022/07/24 14:38:25;;;;;;;3.53;2.20;;;31.60;60.70;;;;;;4959636;28;20414;-81
2022/07/24 14:40:50;;;;;;;2.57;2.37;;;31.30;58.60;;;;;;4980054;28;20448;-80
2022/07/24 14:43:16;;;;;;;8.00;2.47;;;30.70;61.60;;;;;;4997077;28;20531;-81
2022/07/24 14:45:41;;;;;;;3.73;2.73;;;31.30;59.80;;;;;;4997767;28;20173;-80
2022/07/24 14:48:07;;;;;;;1.93;1.83;;;31.30;58.90;;;;;;4996614;28;20204;-81
2022/07/24 14:50:32;;;;;;;4.23;2.30;;;31.30;58.30;;;;;;4998547;28;20181;-81
2022/07/24 14:52:58;;;;;;;2.07;1.87;;;31.40;58.40;;;;;;4998268;28;20188;-81
2022/07/24 14:55:23;;;;;;;2.80;2.20;;;31.40;58.00;;;;;;4982573;28;20177;-79
2022/07/24 14:57:49;;;;;;;4.20;1.73;;;31.40;58.30;;;;;;4976590;28;20181;-79
2022/07/24 15:00:14;;;;;;;5.53;2.07;;;31.40;59.00;;;;;;4973068;28;20272;-78
2022/07/24 15:02:40;;;;;;;6.20;2.00;;;31.10;59.40;;;;;;4972573;28;20213;-78
2022/07/24 15:05:06;;;;;;;2.63;1.97;;;31.20;59.80;;;;;;4973151;28;20186;-78
2022/07/24 15:07:31;;;;;;;6.20;2.20;;;31.30;58.40;;;;;;4972881;28;20244;-78
2022/07/24 15:09:57;;;;;;;3.47;1.70;;;31.50;59.00;;;;;;4983874;28;20185;-79
2022/07/24 15:12:23;;;;;;;2.93;2.03;;;31.30;60.90;;;;;;4995892;28;20565;-79
2022/07/24 15:14:49;;;;;;;8.40;2.00;;;31.20;60.30;;;;;;4982854;28;20189;-81
2022/07/24 15:17:14;;;;;;;5.37;2.37;;;31.00;60.40;;;;;;4975837;28;20417;-81
2022/07/24 15:19:40;;;;;;;3.67;1.80;;;31.30;60.00;;;;;;4975832;28;20496;-81
2022/07/24 15:22:05;;;;;;;2.00;1.80;;;31.40;57.10;;;;;;4976544;28;20575;-80
2022/07/24 15:24:30;;;;;;;2.30;2.10;;;30.30;58.10;;;;;;4975962;28;20201;-80
2022/07/24 15:26:56;;;;;;;2.23;2.03;;;30.20;58.70;;;;;;4977145;28;20240;-79
2022/07/24 15:29:21;;;;;;;3.70;2.00;;;29.70;60.00;;;;;;4975112;28;20761;-81
2022/07/24 15:31:47;;;;;;;2.50;2.10;;;29.70;60.20;;;;;;4975279;28;20204;-81
2022/07/24 15:34:13;;;;;;;1.87;1.77;;;29.30;60.80;;;;;;4971115;28;20273;-81
2022/07/24 15:36:39;;;;;;;2.80;2.03;;;29.60;62.40;;;;;;4965087;28;20175;-81
2022/07/24 15:39:06;;;;;;;4.07;2.27;;;29.70;61.40;;;;;;4956375;29;20589;-80
2022/07/24 15:41:32;;;;;;;4.00;2.40;;;29.70;60.40;;;;;;4989079;28;20576;-80
2022/07/24 15:43:57;;;;;;;2.70;2.20;;;29.80;60.10;;;;;;4995314;28;20416;-80
2022/07/24 15:46:23;;;;;;;2.70;1.90;;;30.10;63.60;;;;;;4994882;28;20252;-79
2022/07/24 15:48:48;;;;;;;3.70;2.10;;;30.60;60.30;;;;;;4991672;28;20219;-77
2022/07/24 15:51:14;;;;;;;8.43;2.10;;;30.60;60.20;;;;;;4992148;28;20199;-79
2022/07/24 15:53:39;;;;;;;2.03;1.87;;;30.40;61.90;;;;;;4992280;28;20189;-79
2022/07/24 15:56:05;;;;;;;4.73;2.13;;;30.70;61.20;;;;;;4992400;28;20173;-79
2022/07/24 15:58:31;;;;;;;4.17;2.30;;;31.10;61.40;;;;;;4982171;28;20666;-78
2022/07/24 16:00:56;;;;;;;2.33;2.13;;;31.10;60.10;;;;;;4976192;28;20209;-78
2022/07/24 16:03:22;;;;;;;4.07;2.33;;;30.70;60.00;;;;;;4975814;28;22451;-78
2022/07/24 16:05:47;;;;;;;6.77;3.20;;;30.50;61.50;;;;;;4990248;28;20535;-78
2022/07/24 16:08:13;;;;;;;2.33;2.13;;;30.50;61.80;;;;;;4981034;28;20216;-79
2022/07/24 16:10:38;;;;;;;3.43;2.27;;;30.50;61.10;;;;;;4979169;28;20185;-78
2022/07/24 16:13:04;;;;;;;6.10;2.47;;;30.50;61.50;;;;;;4964984;28;20181;-78
2022/07/24 16:15:29;;;;;;;4.60;2.43;;;30.40;61.80;;;;;;4977139;28;20626;-78
2022/07/24 16:17:55;;;;;;;3.60;2.20;;;30.00;61.60;;;;;;4977638;28;20194;-78
2022/07/24 16:20:21;;;;;;;2.80;2.30;;;30.00;62.40;;;;;;4987875;28;20181;-78
2022/07/24 16:22:46;;;;;;;3.20;2.07;;;30.10;62.40;;;;;;4986613;28;20432;-78
2022/07/24 16:25:12;;;;;;;3.20;2.10;;;30.20;61.50;;;;;;4976131;28;20523;-78
2022/07/24 16:27:38;;;;;;;2.70;2.50;;;29.90;61.00;;;;;;4991274;28;20232;-78
2022/07/24 16:30:05;;;;;;;3.67;2.37;;;29.70;62.80;;;;;;4992207;28;20170;-78
2022/07/24 16:32:30;;;;;;;5.53;2.00;;;29.80;61.90;;;;;;4981046;28;20200;-78
2022/07/24 16:34:56;;;;;;;5.27;2.30;;;29.60;61.70;;;;;;4985198;28;20417;-78
2022/07/24 16:37:21;;;;;;;2.00;1.90;;;29.70;64.00;;;;;;4976736;28;20252;-78
2022/07/24 16:39:47;;;;;;;3.43;2.10;;;30.00;62.40;;;;;;4990788;28;20181;-77
2022/07/24 16:42:12;;;;;;;3.47;2.00;;;30.20;62.40;;;;;;4990724;28;20197;-78
2022/07/24 16:44:38;;;;;;;7.70;2.30;;;30.10;62.60;;;;;;4982088;28;20268;-78
2022/07/24 16:47:05;;;;;;;2.47;2.00;;;29.80;60.80;;;;;;4980284;28;20212;-78